Heimkehr — DPMA — position and weather

sailwx.info

Track history (hours):
 
Tides and Currents Weather Stations Pressure Air Temp Water Temp Dewpoint Dewpoint Depression Visibility Wind Speed Wind Dir Waves Ship Positions

Heimkehr

Last reported at 2019-Nov-11 10:30 UTC. Time now 2019-Nov-15 08:21 UTC.
Position N 53°51' E 008°59'.

Length 18 m.

Type: Pleasure craft. MMSI: 211382270.

Date/timePositionNaut miles runAvg speedWind from/ knotsBaromVisibWave heightAir tempDewpointWater temp
2019-Nov-11 10:30N 53°51' E 008°59'1 0.8
2019-Nov-11 08:58N 53°52' E 008°57'7 2.3
2019-Nov-11 06:00N 53°53' E 009°09'4 8.2
2019-Nov-11 05:30N 53°52' E 009°16'7 3.5
2019-Nov-11 03:30N 53°47' E 009°24'0 0.0
2019-Nov-11 02:30N 53°47' E 009°24'0 0.0
2019-Nov-11 02:00N 53°47' E 009°24'0 0.0
2019-Nov-11 01:00N 53°47' E 009°24'0 0.0
2019-Nov-11 00:30N 53°47' E 009°24'0 0.0
2019-Nov-10 23:30N 53°47' E 009°24'0 0.0
2019-Nov-10 22:30N 53°47' E 009°24'0 0.0
2019-Nov-10 21:00N 53°47' E 009°24'0 0.0
2019-Nov-10 18:30N 53°47' E 009°24'16 6.3
2019-Nov-10 16:00N 53°34' E 009°39'12 1.7
2019-Nov-10 08:59N 53°33' E 009°59'0 0.0
2019-Nov-10 05:59N 53°33' E 009°59'0 0.0
2019-Nov-10 03:59N 53°33' E 009°59'0 0.0
2019-Nov-10 00:59N 53°33' E 009°59'0 0.0
2019-Nov-09 23:29N 53°33' E 009°59'0 0.0
2019-Nov-09 22:59N 53°33' E 009°59'0 0.0
2019-Nov-09 16:29N 53°33' E 009°59'0 0.0
2019-Nov-09 15:29N 53°33' E 009°59'0 0.0
2019-Nov-09 10:29N 53°33' E 009°59'0 0.0
2019-Nov-09 09:59N 53°33' E 009°59'0 0.0
2019-Nov-09 05:29N 53°33' E 009°59'0 0.0
2019-Nov-09 03:29N 53°33' E 009°59'0 0.0
2019-Nov-09 02:59N 53°33' E 009°59'0 0.0
2019-Nov-09 01:59N 53°33' E 009°59'0 0.0
2019-Nov-09 00:29N 53°33' E 009°59'0 0.0
2019-Nov-08 23:29N 53°33' E 009°59'0 0.0
2019-Nov-08 21:59N 53°33' E 009°59'0 0.0
2019-Nov-08 21:29N 53°33' E 009°59'0 0.0
2019-Nov-08 20:59N 53°33' E 009°59'0 0.0
2019-Nov-08 20:29N 53°33' E 009°59'  
2019-Nov-06 08:28N 53°33' E 009°59'0 0.0
2019-Nov-06 06:28N 53°33' E 009°59'0 0.0
2019-Nov-06 04:58N 53°33' E 009°59'0 0.0
2019-Nov-06 03:58N 53°33' E 009°59'0 0.0
2019-Nov-06 01:58N 53°33' E 009°59'0 0.0
2019-Nov-05 23:58N 53°33' E 009°59'0 0.0
2019-Nov-05 22:28N 53°33' E 009°59'0 0.0
2019-Nov-05 18:28N 53°33' E 009°59'0 0.0
2019-Nov-05 17:58N 53°33' E 009°59'0 0.0
2019-Nov-05 17:28N 53°33' E 009°59'0 0.0
2019-Nov-05 14:58N 53°33' E 009°59'0 0.0
2019-Nov-05 12:58N 53°33' E 009°59'0 0.0
2019-Nov-05 11:28N 53°33' E 009°59'0 0.0
2019-Nov-05 10:58N 53°33' E 009°59'0 0.0
2019-Nov-05 08:28N 53°33' E 009°59'0 0.0
2019-Nov-05 05:58N 53°33' E 009°59'0 0.0
2019-Nov-05 03:28N 53°33' E 009°59'0 0.0
2019-Nov-05 00:28N 53°33' E 009°59'0 0.0
2019-Nov-04 23:58N 53°33' E 009°59'0 0.0
2019-Nov-04 22:58N 53°33' E 009°59'0 0.0
2019-Nov-04 19:28N 53°33' E 009°59'0 0.0
2019-Nov-04 09:59N 53°33' E 009°59'0 0.0
2019-Nov-04 05:29N 53°33' E 009°59'0 0.0
2019-Nov-04 04:59N 53°33' E 009°59'0 0.0
2019-Nov-04 02:59N 53°33' E 009°59'0 0.0
2019-Nov-04 00:59N 53°33' E 009°59'0 0.0
2019-Nov-03 23:59N 53°33' E 009°59'0 0.0
2019-Nov-03 21:29N 53°33' E 009°59'0 0.0
2019-Nov-03 20:59N 53°33' E 009°59'  
Track history (hours):
 
Tides and Currents Weather Stations Pressure Air Temp Water Temp Dewpoint Dewpoint Depression Visibility Wind Speed Wind Dir Waves Ship Positions

Heimkehr

Last reported at 2019-Nov-11 10:30 UTC. Time now 2019-Nov-15 08:21 UTC.
Position N 53°51' E 008°59'.

Length 18 m.

Type: Pleasure craft. MMSI: 211382270.

Date/timePositionNaut miles runAvg speedWind from/ knotsBaromVisibWave heightAir tempDewpointWater temp
2019-Nov-11 10:30N 53°51' E 008°59'1 0.8
2019-Nov-11 08:58N 53°52' E 008°57'7 2.3
2019-Nov-11 06:00N 53°53' E 009°09'4 8.2
2019-Nov-11 05:30N 53°52' E 009°16'7 3.5
2019-Nov-11 03:30N 53°47' E 009°24'0 0.0
2019-Nov-11 02:30N 53°47' E 009°24'0 0.0
2019-Nov-11 02:00N 53°47' E 009°24'0 0.0
2019-Nov-11 01:00N 53°47' E 009°24'0 0.0
2019-Nov-11 00:30N 53°47' E 009°24'0 0.0
2019-Nov-10 23:30N 53°47' E 009°24'0 0.0
2019-Nov-10 22:30N 53°47' E 009°24'0 0.0
2019-Nov-10 21:00N 53°47' E 009°24'0 0.0
2019-Nov-10 18:30N 53°47' E 009°24'16 6.3
2019-Nov-10 16:00N 53°34' E 009°39'12 1.7
2019-Nov-10 08:59N 53°33' E 009°59'0 0.0
2019-Nov-10 05:59N 53°33' E 009°59'0 0.0
2019-Nov-10 03:59N 53°33' E 009°59'0 0.0
2019-Nov-10 00:59N 53°33' E 009°59'0 0.0
2019-Nov-09 23:29N 53°33' E 009°59'0 0.0
2019-Nov-09 22:59N 53°33' E 009°59'0 0.0
2019-Nov-09 16:29N 53°33' E 009°59'0 0.0
2019-Nov-09 15:29N 53°33' E 009°59'0 0.0
2019-Nov-09 10:29N 53°33' E 009°59'0 0.0
2019-Nov-09 09:59N 53°33' E 009°59'0 0.0
2019-Nov-09 05:29N 53°33' E 009°59'0 0.0
2019-Nov-09 03:29N 53°33' E 009°59'0 0.0
2019-Nov-09 02:59N 53°33' E 009°59'0 0.0
2019-Nov-09 01:59N 53°33' E 009°59'0 0.0
2019-Nov-09 00:29N 53°33' E 009°59'0 0.0
2019-Nov-08 23:29N 53°33' E 009°59'0 0.0
2019-Nov-08 21:59N 53°33' E 009°59'0 0.0
2019-Nov-08 21:29N 53°33' E 009°59'0 0.0
2019-Nov-08 20:59N 53°33' E 009°59'0 0.0
2019-Nov-08 20:29N 53°33' E 009°59'  
2019-Nov-06 08:28N 53°33' E 009°59'0 0.0
2019-Nov-06 06:28N 53°33' E 009°59'0 0.0
2019-Nov-06 04:58N 53°33' E 009°59'0 0.0
2019-Nov-06 03:58N 53°33' E 009°59'0 0.0
2019-Nov-06 01:58N 53°33' E 009°59'0 0.0
2019-Nov-05 23:58N 53°33' E 009°59'0 0.0
2019-Nov-05 22:28N 53°33' E 009°59'0 0.0
2019-Nov-05 18:28N 53°33' E 009°59'0 0.0
2019-Nov-05 17:58N 53°33' E 009°59'0 0.0
2019-Nov-05 17:28N 53°33' E 009°59'0 0.0
2019-Nov-05 14:58N 53°33' E 009°59'0 0.0
2019-Nov-05 12:58N 53°33' E 009°59'0 0.0
2019-Nov-05 11:28N 53°33' E 009°59'0 0.0
2019-Nov-05 10:58N 53°33' E 009°59'0 0.0
2019-Nov-05 08:28N 53°33' E 009°59'0 0.0
2019-Nov-05 05:58N 53°33' E 009°59'0 0.0
2019-Nov-05 03:28N 53°33' E 009°59'0 0.0
2019-Nov-05 00:28N 53°33' E 009°59'0 0.0
2019-Nov-04 23:58N 53°33' E 009°59'0 0.0
2019-Nov-04 22:58N 53°33' E 009°59'0 0.0
2019-Nov-04 19:28N 53°33' E 009°59'0 0.0
2019-Nov-04 09:59N 53°33' E 009°59'0 0.0
2019-Nov-04 05:29N 53°33' E 009°59'0 0.0
2019-Nov-04 04:59N 53°33' E 009°59'0 0.0
2019-Nov-04 02:59N 53°33' E 009°59'0 0.0
2019-Nov-04 00:59N 53°33' E 009°59'0 0.0
2019-Nov-03 23:59N 53°33' E 009°59'0 0.0
2019-Nov-03 21:29N 53°33' E 009°59'0 0.0
2019-Nov-03 20:59N 53°33' E 009°59'  

Dump ship's entire track history